JA123Y RJTI-RJTI

Flight info

Callsign JA123Y
Flight time 0h 7m
Altitude 1500
Route HAKOZAKI KOMATSUGAWA
Aircraft EC30/L-SDGLOV/S

Departure

Time 2026-04-21 13:49
Airport Tokyo Heliport (RJTI)

Arrival

Time 2026-04-21 13:57
Airport Tokyo Heliport (RJTI)
Time Latitude Longitude Altitude Speed Heading
2026-04-21 13:40 35.63471 139.83752 21 ft 0 kts 92°
2026-04-21 13:45 35.63471 139.83754 10 ft 1 kts 82°
2026-04-21 13:46 35.63497 139.83780 34 ft 6 kts 57°
2026-04-21 13:46 35.63517 139.83828 33 ft 8 kts 11°
2026-04-21 13:46 35.63557 139.83843 31 ft 6 kts 84°
2026-04-21 13:46 35.63556 139.83869 28 ft 1 kts 87°
2026-04-21 13:47 35.63556 139.83877 32 ft 5 kts 85°
2026-04-21 13:47 35.63569 139.83942 40 ft 8 kts 23°
2026-04-21 13:47 35.63612 139.83945 62 ft 17 kts 11°
2026-04-21 13:47 35.63900 139.83950 172 ft 57 kts
2026-04-21 13:48 35.64112 139.83465 288 ft 79 kts 273°
2026-04-21 13:48 35.64074 139.82742 324 ft 87 kts 268°
2026-04-21 13:48 35.64047 139.81989 417 ft 92 kts 271°
2026-04-21 13:48 35.63904 139.81254 501 ft 87 kts 232°
2026-04-21 13:49 35.63610 139.80640 544 ft 82 kts 258°
2026-04-21 13:49 35.63697 139.79998 537 ft 77 kts 309°
2026-04-21 13:49 35.63993 139.79432 501 ft 77 kts 305°
2026-04-21 13:49 35.64330 139.78931 652 ft 78 kts 328°
2026-04-21 13:50 35.64873 139.78686 687 ft 87 kts 354°
2026-04-21 13:50 35.65428 139.78618 833 ft 75 kts 360°
2026-04-21 13:50 35.65948 139.78515 883 ft 84 kts 350°
2026-04-21 13:50 35.66542 139.78331 884 ft 91 kts 352°
2026-04-21 13:51 35.67174 139.78177 858 ft 93 kts 357°
2026-04-21 13:51 35.67786 139.78258 946 ft 92 kts 22°
2026-04-21 13:51 35.68370 139.78656 1005 ft 93 kts 32°
2026-04-21 13:51 35.68854 139.79048 1221 ft 79 kts 31°
2026-04-21 13:52 35.69326 139.79432 1190 ft 83 kts 32°
2026-04-21 13:52 35.69805 139.79857 1182 ft 88 kts 33°
2026-04-21 13:52 35.70299 139.80333 1192 ft 92 kts 37°
2026-04-21 13:52 35.70594 139.81078 1118 ft 104 kts 76°
2026-04-21 13:53 35.70703 139.81941 1110 ft 101 kts 75°
2026-04-21 13:53 35.70832 139.82781 894 ft 99 kts 74°
2026-04-21 13:53 35.71003 139.83579 699 ft 96 kts 76°
2026-04-21 13:53 35.71106 139.84364 695 ft 91 kts 89°
2026-04-21 13:54 35.70875 139.85105 683 ft 99 kts 123°
2026-04-21 13:54 35.70289 139.85633 577 ft 109 kts 158°
2026-04-21 13:54 35.69543 139.85704 544 ft 110 kts 186°
2026-04-21 13:54 35.68817 139.85422 523 ft 108 kts 201°
2026-04-21 13:55 35.68135 139.85036 502 ft 108 kts 200°
2026-04-21 13:55 35.67416 139.84736 425 ft 110 kts 190°
2026-04-21 13:55 35.66678 139.84666 449 ft 102 kts 178°
2026-04-21 13:55 35.65982 139.84637 508 ft 97 kts 176°
2026-04-21 13:56 35.65317 139.84608 573 ft 93 kts 179°
2026-04-21 13:56 35.64658 139.84582 597 ft 93 kts 179°
2026-04-21 13:56 35.64035 139.84569 589 ft 90 kts 175°
2026-04-21 13:56 35.63417 139.84539 365 ft 89 kts 188°
2026-04-21 13:57 35.63273 139.84035 240 ft 58 kts 324°
2026-04-21 13:57 35.63551 139.83941 69 ft 27 kts 15°
2026-04-21 13:57 35.63635 139.83895 36 ft 16 kts 265°
2026-04-21 13:57 35.63576 139.83833 43 ft 18 kts 192°
2026-04-21 13:58 35.63490 139.83778 31 ft 17 kts 197°
2026-04-21 13:58 35.63471 139.83751 34 ft 1 kts
2026-04-21 13:58 35.63470 139.83753 26 ft 1 kts